createdAt,value
2022-08-05T00:01:28.544Z,4.95
2022-08-05T00:06:33.503Z,4.53
2022-08-05T00:11:49.296Z,5.20
2022-08-05T00:22:05.811Z,5.38
2022-08-05T00:27:10.399Z,5.25
2022-08-05T00:32:18.906Z,5.10
2022-08-05T00:37:22.442Z,4.80
2022-08-05T00:42:32.518Z,4.47
2022-08-05T00:47:53.350Z,5.07
2022-08-05T00:53:01.144Z,4.53
2022-08-05T00:58:05.159Z,4.82
2022-08-05T01:03:10.560Z,5.57
2022-08-05T01:08:40.697Z,4.88
2022-08-05T01:13:57.454Z,4.13
2022-08-05T01:19:14.326Z,5.90
2022-08-05T01:24:37.240Z,5.10
2022-08-05T01:29:48.160Z,5.72
2022-08-05T01:34:56.127Z,5.30
2022-08-05T01:40:02.151Z,5.20
2022-08-05T01:45:09.163Z,5.38
2022-08-05T01:50:28.785Z,4.80
2022-08-05T01:55:36.451Z,4.43
2022-08-05T02:00:45.380Z,4.75
2022-08-05T02:05:53.475Z,4.72
2022-08-05T02:11:06.351Z,4.78
2022-08-05T02:16:18.266Z,5.53
2022-08-05T02:21:30.371Z,5.45
2022-08-05T02:26:39.762Z,5.18
2022-08-05T02:31:59.176Z,4.97
2022-08-05T02:37:11.072Z,4.50
2022-08-05T02:42:25.694Z,5.35
2022-08-05T02:47:58.499Z,4.72
2022-08-05T02:52:58.676Z,5.93
2022-08-05T02:58:11.604Z,5.95
2022-08-05T03:03:20.134Z,5.57
2022-08-05T03:08:29.836Z,5.20
2022-08-05T03:13:50.998Z,5.03
2022-08-05T03:18:58.225Z,5.90
2022-08-05T03:24:02.417Z,5.20
2022-08-05T03:29:06.265Z,6.10
2022-08-05T03:34:17.515Z,5.78
2022-08-05T03:39:27.181Z,5.95
2022-08-05T03:44:31.465Z,5.57
2022-08-05T03:49:51.636Z,6.03
2022-08-05T03:56:03.793Z,5.65
2022-08-05T04:00:30.006Z,6.10
2022-08-05T04:05:37.263Z,6.30
2022-08-05T04:10:45.426Z,5.93
2022-08-05T04:15:52.784Z,5.68
2022-08-05T04:21:10.879Z,5.68
2022-08-05T04:26:15.800Z,5.50
2022-08-05T04:31:21.086Z,5.65
2022-08-05T04:36:45.930Z,5.80
2022-08-05T04:41:50.968Z,5.78
2022-08-05T04:46:54.670Z,6.50
2022-08-05T04:52:00.381Z,5.82
2022-08-05T04:57:04.150Z,5.70
2022-08-05T05:02:36.766Z,5.97
2022-08-05T05:07:35.589Z,5.70
2022-08-05T05:12:39.272Z,5.85
2022-08-05T05:17:56.485Z,5.63
2022-08-05T05:23:08.169Z,5.60
2022-08-05T05:28:12.812Z,5.70
2022-08-05T05:33:17.430Z,5.38
2022-08-05T05:38:27.589Z,5.32
2022-08-05T05:43:58.311Z,5.10
2022-08-05T05:48:54.507Z,5.75
2022-08-05T05:54:00.091Z,5.57
2022-08-05T05:59:05.345Z,5.45
2022-08-05T06:04:12.203Z,4.65
2022-08-05T06:09:25.703Z,5.25
2022-08-05T06:14:40.262Z,4.20
2022-08-05T06:19:43.776Z,4.75
2022-08-05T06:25:01.441Z,4.18
2022-08-05T06:30:27.409Z,5.00
2022-08-05T06:36:07.270Z,5.35
2022-08-05T06:40:56.306Z,4.60
2022-08-05T06:46:07.309Z,4.18
2022-08-05T06:51:22.706Z,4.45
2022-08-05T06:56:29.452Z,4.13
2022-08-05T07:01:33.364Z,4.03
2022-08-05T07:06:37.414Z,4.03
2022-08-05T07:11:43.773Z,4.22
2022-08-05T07:17:59.331Z,3.97
2022-08-05T07:22:28.185Z,4.30
2022-08-05T07:27:57.970Z,4.00
2022-08-05T07:32:57.689Z,4.88
2022-08-05T07:38:01.019Z,4.38
2022-08-05T07:43:20.277Z,4.05
2022-08-05T07:49:00.829Z,3.90
2022-08-05T07:53:50.225Z,4.70
2022-08-05T07:58:58.775Z,4.45
2022-08-05T08:04:03.173Z,3.80
2022-08-05T08:09:07.612Z,3.95
2022-08-05T08:14:12.424Z,3.88
2022-08-05T08:20:23.382Z,4.07
2022-08-05T08:24:51.420Z,4.13
2022-08-05T08:30:05.713Z,3.20
2022-08-05T08:35:21.042Z,3.40
2022-08-05T08:40:33.472Z,3.50
2022-08-05T08:45:39.222Z,4.22
2022-08-05T08:51:23.189Z,3.85
2022-08-05T08:56:09.119Z,3.80
2022-08-05T09:01:16.206Z,4.70
2022-08-05T09:06:21.357Z,3.57
2022-08-05T09:11:50.806Z,3.92
2022-08-05T09:16:58.688Z,4.25
2022-08-05T09:22:22.972Z,4.13
2022-08-05T09:28:04.633Z,4.40
2022-08-05T09:33:02.727Z,4.63
2022-08-05T09:38:16.773Z,4.63
2022-08-05T09:43:28.132Z,4.25
2022-08-05T09:48:55.294Z,4.00
2022-08-05T09:54:11.543Z,3.95
2022-08-05T09:59:18.192Z,4.13
2022-08-05T10:04:38.342Z,4.20
2022-08-05T10:10:14.238Z,4.05
2022-08-05T10:15:23.816Z,3.60
2022-08-05T10:20:31.263Z,3.30
2022-08-05T10:25:36.924Z,3.25
2022-08-05T10:31:20.969Z,3.00
2022-08-05T10:36:07.065Z,3.15
2022-08-05T10:41:23.239Z,3.83
2022-08-05T10:46:44.964Z,5.13
2022-08-05T10:51:59.910Z,2.90
2022-08-05T10:57:03.958Z,3.60
2022-08-05T11:02:14.503Z,3.13
2022-08-05T11:08:02.564Z,3.05
2022-08-05T11:13:01.155Z,3.60
2022-08-05T11:18:11.659Z,2.80
2022-08-05T11:24:02.547Z,3.17
2022-08-05T11:29:06.829Z,3.92
2022-08-05T11:34:22.511Z,3.03
2022-08-05T11:39:55.391Z,2.88
2022-08-05T11:45:23.247Z,3.17
2022-08-05T11:50:30.494Z,3.33
2022-08-05T11:55:36.223Z,3.58
2022-08-05T12:00:41.603Z,3.22
2022-08-05T12:05:47.925Z,3.43
2022-08-05T12:10:53.967Z,2.90
2022-08-05T12:15:58.932Z,3.28
2022-08-05T12:21:12.844Z,3.30
2022-08-05T12:26:19.942Z,3.38
2022-08-05T12:31:33.604Z,3.03
2022-08-05T12:36:48.337Z,2.90
2022-08-05T12:41:59.131Z,3.03
2022-08-05T12:47:02.804Z,3.10
2022-08-05T12:52:23.873Z,2.83
2022-08-05T12:58:38.785Z,11.70
2022-08-05T13:03:03.145Z,3.28
2022-08-05T13:08:10.183Z,2.63
2022-08-05T13:14:06.515Z,2.95
2022-08-05T13:18:52.281Z,3.08
2022-08-05T13:23:58.765Z,2.92
2022-08-05T13:29:05.185Z,2.85
2022-08-05T13:34:22.647Z,2.72
2022-08-05T13:40:16.358Z,2.58
2022-08-05T13:44:54.537Z,2.92
2022-08-05T13:49:59.269Z,2.05
2022-08-05T13:55:02.575Z,2.38
2022-08-05T14:00:14.072Z,2.33
2022-08-05T14:05:29.192Z,2.63
2022-08-05T14:10:34.863Z,2.60
2022-08-05T14:16:06.276Z,2.30
2022-08-05T14:22:07.803Z,2.20
2022-08-05T14:26:37.026Z,2.28
2022-08-05T14:32:03.703Z,2.70
2022-08-05T14:37:09.484Z,2.40
2022-08-05T14:42:21.001Z,2.30
2022-08-05T14:47:58.455Z,2.60
2022-08-05T14:52:53.441Z,3.05
2022-08-05T14:58:01.258Z,2.70
2022-08-05T15:03:16.132Z,2.60
2022-08-05T15:08:57.749Z,2.60
2022-08-05T15:13:46.533Z,2.90
2022-08-05T15:18:55.089Z,3.00
2022-08-05T15:23:58.498Z,2.45
2022-08-05T15:29:02.469Z,2.80
2022-08-05T15:34:32.514Z,2.85
2022-08-05T15:40:58.762Z,2.85
2022-08-05T15:44:55.076Z,2.42
2022-08-05T15:49:59.825Z,3.60
2022-08-05T15:55:03.789Z,2.90
2022-08-05T16:00:09.618Z,2.92
2022-08-05T16:05:16.139Z,2.90
2022-08-05T16:10:23.320Z,2.70
2022-08-05T16:15:32.775Z,3.38
2022-08-05T16:20:38.806Z,2.78
2022-08-05T16:25:42.492Z,3.20
2022-08-05T16:30:48.370Z,2.85
2022-08-05T16:35:55.551Z,2.97
2022-08-05T16:41:02.405Z,3.92
2022-08-05T16:46:25.657Z,4.18
2022-08-05T16:51:42.811Z,3.05
2022-08-05T16:56:53.829Z,4.38
2022-08-05T17:01:57.871Z,3.40
2022-08-05T17:07:11.272Z,3.28
2022-08-05T17:12:15.091Z,3.92
2022-08-05T17:17:19.708Z,3.22
2022-08-05T17:22:27.933Z,3.65
2022-08-05T17:27:33.882Z,3.58
2022-08-05T17:32:37.991Z,3.28
2022-08-05T17:37:48.469Z,2.97
2022-08-05T17:42:53.518Z,3.80
2022-08-05T17:47:57.131Z,3.90
2022-08-05T17:53:04.649Z,3.40
2022-08-05T17:58:12.665Z,3.45
2022-08-05T18:03:58.376Z,3.73
2022-08-05T18:08:46.228Z,4.57
2022-08-05T18:13:56.069Z,4.20
2022-08-05T18:18:59.474Z,4.07
2022-08-05T18:24:04.464Z,3.65
2022-08-05T18:29:10.224Z,4.00
2022-08-05T18:34:13.813Z,4.28
2022-08-05T18:39:41.737Z,5.25
2022-08-05T18:44:49.294Z,4.45
2022-08-05T18:50:16.278Z,4.10
2022-08-05T18:55:22.221Z,4.13
2022-08-05T19:00:28.892Z,4.32
2022-08-05T19:06:11.889Z,4.30
2022-08-05T19:11:04.742Z,3.67
2022-08-05T19:16:25.466Z,3.70
2022-08-05T19:21:34.661Z,4.40
2022-08-05T19:26:54.314Z,4.25
2022-08-05T19:31:58.978Z,4.20
2022-08-05T19:37:02.333Z,5.68
2022-08-05T19:42:09.303Z,4.50
2022-08-05T19:47:16.823Z,5.10
2022-08-05T19:52:30.621Z,5.38
2022-08-05T19:57:49.319Z,4.75
2022-08-05T20:02:59.917Z,5.43
2022-08-05T20:08:03.235Z,5.30
2022-08-05T20:13:09.273Z,5.18
2022-08-05T20:18:32.905Z,5.45
2022-08-05T20:23:51.181Z,5.13
2022-08-05T20:29:00.646Z,6.22
2022-08-05T20:34:04.389Z,5.28
2022-08-05T20:39:07.732Z,5.40
2022-08-05T20:44:29.612Z,5.32
2022-08-05T20:49:39.605Z,5.95
2022-08-05T20:55:54.294Z,5.50
2022-08-05T21:00:40.637Z,5.70
2022-08-05T21:05:47.900Z,5.28
2022-08-05T21:10:58.356Z,6.00
2022-08-05T21:16:03.571Z,5.70
2022-08-05T21:21:07.538Z,5.35
2022-08-05T21:26:15.244Z,5.90
2022-08-05T21:31:20.474Z,5.97
2022-08-05T21:36:30.062Z,6.32
2022-08-05T21:41:36.491Z,6.57
2022-08-05T21:46:41.781Z,6.45
2022-08-05T21:52:16.658Z,7.38
2022-08-05T21:57:30.743Z,6.60
2022-08-05T22:02:34.935Z,7.07
2022-08-05T22:07:40.420Z,7.28
2022-08-05T22:14:06.459Z,7.72
2022-08-05T22:18:27.136Z,8.93
2022-08-05T22:24:02.229Z,9.23
2022-08-05T22:29:07.842Z,8.82
2022-08-05T22:34:25.480Z,9.55
2022-08-05T22:39:33.863Z,9.35
2022-08-05T22:44:37.476Z,10.45
2022-08-05T22:50:21.509Z,11.00
2022-08-05T22:55:18.916Z,10.13
2022-08-05T23:00:24.817Z,10.02
2022-08-05T23:05:31.308Z,9.73
2022-08-05T23:15:42.709Z,10.57
2022-08-05T23:20:47.638Z,9.30
2022-08-05T23:25:55.445Z,9.75
2022-08-05T23:31:15.853Z,10.25
2022-08-05T23:36:28.245Z,10.18
2022-08-05T23:41:34.257Z,10.85
2022-08-05T23:46:40.765Z,10.30
2022-08-05T23:52:05.519Z,10.55
2022-08-05T23:57:10.400Z,10.45
